PORT of BROOME

Държава: Australia Държава: Australia (AU)
Географска ширина / дължина: -17.989765° / 122.2235° Покажи върху картата Покажи върху картата
Мстно време:  UTC +8
UN/LOCODE: AUBME
Очаквани за отплаване: 5

Последни пристигащи и отплавали


Име на кораба
Пристигащи (UTC)
Пристигащи (LT)
Заминаващи (UTC)
Заминаващи (LT)
Vessel Type: Яхти и други  FAR SITELLA 2014-09-22 22:09:00 2014-09-23 06:09:00 2014-09-23 07:24:00 2014-09-23 15:24:00
Vessel Type: Риболовен  PRIMEMOVER 2014-09-17 19:01:00 2014-09-18 03:01:00 2014-09-22 09:03:00 2014-09-22 17:03:00
Vessel Type: Яхти и други  QUESTE 2014-09-19 08:22:00 2014-09-19 16:22:00 2014-09-21 06:20:00 2014-09-21 14:20:00
Vessel Type: Яхти и други  FAR SKIMMER 2014-09-19 01:59:00 2014-09-19 09:59:00 2014-09-20 07:00:00 2014-09-20 15:00:00
Vessel Type: Яхти и други  BARKLY PEARL 2014-09-17 11:12:00 2014-09-17 19:12:00 2014-09-18 14:23:00 2014-09-18 22:23:00
Vessel Type: Влекач, пилотски и др.  FAR STREAM 2014-09-18 01:25:00 2014-09-18 09:25:00 2014-09-18 08:16:00 2014-09-18 16:16:00
Vessel Type: Товарни кораби  BORKUM 2014-09-15 05:42:00 2014-09-15 13:42:00 2014-09-17 10:29:00 2014-09-17 18:29:00
Vessel Type: Яхти и други  FAR SITELLA 2014-09-08 22:27:00 2014-09-09 06:27:00 2014-09-16 08:29:00 2014-09-16 16:29:00
Vessel Type: Риболовен  ASHBURTON ROAD 2014-09-15 22:00:00 2014-09-16 06:00:00
Vessel Type: Пътнически кораб  CORAL PRINCESS 2014-08-25 00:36:00 2014-08-25 08:36:00 2014-09-15 09:47:00 2014-09-15 17:47:00

Очаквани за отплаване


Име на кораба
Scheduled Arrival (UTC)
Scheduled Arrival (LT)
Очаквано отплаване (UTC)
Очаквано отплаване (местно време)
Vessel Type: Пътнически кораб  TRUE NORTH 2014-09-23 05:00:00 2014-09-23 13:00:00
Vessel Type: Яхти и други  FAR SITELLA 2014-09-23 06:00:00 2014-09-23 14:00:00 2014-09-22 22:10:00 2014-09-23 06:10:00
Vessel Type: Танкери  GLORISILVER 2014-09-23 08:00:00 2014-09-23 16:00:00 2014-10-29 22:32:00 2014-10-30 06:32:00
Vessel Type: Танкери  CRYSTAL NORD 2014-09-26 04:00:00 2014-09-26 12:00:00
Vessel Type: Товарни кораби  LINCOLN EXPRESS 2014-09-26 06:00:00 2014-09-26 14:00:00 2014-09-25 11:23:00 2014-09-25 19:23:00

Wind Forecast


    
Време (UTC)
Скорост
Direction
Temperature
2014-09-23 15:00:00 18 knots 143° 26°C
2014-09-23 18:00:00 20 knots 135° 24°C
2014-09-23 21:00:00 21 knots 127° 23°C
2014-09-24 00:00:00 21 knots 123° 23°C
2014-09-24 03:00:00 15 knots 130° 26°C
2014-09-24 06:00:00 8 knots 168° 28°C
2014-09-24 09:00:00 9 knots 196° 29°C
2014-09-24 12:00:00 12 knots 151° 27°C
2014-09-24 15:00:00 16 knots 125° 26°C
2014-09-24 18:00:00 17 knots 126° 25°C
2014-09-24 21:00:00 19 knots 112° 23°C
2014-09-25 00:00:00 19 knots 111° 25°C
2014-09-25 03:00:00 9 knots 122° 28°C
2014-09-25 06:00:00 8 knots 221° 29°C
2014-09-25 09:00:00 14 knots 241° 28°C
2014-09-25 12:00:00 13 knots 229° 27°C

NO_PHOTO

No Photos for this port. Be the first to upload one!